sensor_id;sensor_type;location;lat;lon;timestamp;P1;durP1;ratioP1;P2;durP2;ratioP2
6475;SDS011;3271;51.910;5.840;2023-04-10T00:01:35;6.80;;;6.10;;
6475;SDS011;3271;51.910;5.840;2023-04-10T00:04:02;6.63;;;5.95;;
6475;SDS011;3271;51.910;5.840;2023-04-10T00:06:28;7.05;;;6.28;;
6475;SDS011;3271;51.910;5.840;2023-04-10T00:08:55;7.28;;;6.05;;
6475;SDS011;3271;51.910;5.840;2023-04-10T00:11:21;6.45;;;5.85;;
6475;SDS011;3271;51.910;5.840;2023-04-10T00:13:47;6.88;;;6.28;;
6475;SDS011;3271;51.910;5.840;2023-04-10T00:16:13;6.75;;;6.15;;
6475;SDS011;3271;51.910;5.840;2023-04-10T00:18:39;6.60;;;6.00;;
6475;SDS011;3271;51.910;5.840;2023-04-10T00:21:05;7.15;;;6.25;;
6475;SDS011;3271;51.910;5.840;2023-04-10T00:23:31;6.72;;;6.00;;
6475;SDS011;3271;51.910;5.840;2023-04-10T00:25:58;6.78;;;5.47;;
6475;SDS011;3271;51.910;5.840;2023-04-10T00:28:24;6.30;;;5.70;;
6475;SDS011;3271;51.910;5.840;2023-04-10T00:30:50;6.57;;;5.97;;
6475;SDS011;3271;51.910;5.840;2023-04-10T00:33:16;6.40;;;5.80;;
6475;SDS011;3271;51.910;5.840;2023-04-10T00:35:42;6.68;;;6.03;;
6475;SDS011;3271;51.910;5.840;2023-04-10T00:38:08;6.50;;;5.90;;
6475;SDS011;3271;51.910;5.840;2023-04-10T00:40:34;8.43;;;6.28;;
6475;SDS011;3271;51.910;5.840;2023-04-10T00:43:00;6.80;;;6.20;;
6475;SDS011;3271;51.910;5.840;2023-04-10T00:45:26;6.65;;;6.07;;
6475;SDS011;3271;51.910;5.840;2023-04-10T00:47:52;6.05;;;5.47;;
6475;SDS011;3271;51.910;5.840;2023-04-10T00:50:19;7.78;;;6.30;;
6475;SDS011;3271;51.910;5.840;2023-04-10T00:52:45;8.68;;;6.03;;
6475;SDS011;3271;51.910;5.840;2023-04-10T00:55:12;7.03;;;6.32;;
6475;SDS011;3271;51.910;5.840;2023-04-10T00:57:40;6.25;;;5.65;;
6475;SDS011;3271;51.910;5.840;2023-04-10T01:00:08;6.88;;;6.18;;
6475;SDS011;3271;51.910;5.840;2023-04-10T01:02:34;5.40;;;4.90;;
6475;SDS011;3271;51.910;5.840;2023-04-10T01:05:00;6.60;;;5.90;;
6475;SDS011;3271;51.910;5.840;2023-04-10T01:10:11;7.00;;;6.30;;
6475;SDS011;3271;51.910;5.840;2023-04-10T01:15:15;6.93;;;6.22;;
6475;SDS011;3271;51.910;5.840;2023-04-10T01:17:43;6.60;;;6.00;;
6475;SDS011;3271;51.910;5.840;2023-04-10T01:20:15;5.95;;;5.45;;
6475;SDS011;3271;51.910;5.840;2023-04-10T01:25:42;5.55;;;5.05;;
6475;SDS011;3271;51.910;5.840;2023-04-10T01:28:14;6.47;;;5.88;;
6475;SDS011;3271;51.910;5.840;2023-04-10T01:30:41;6.38;;;5.78;;
6475;SDS011;3271;51.910;5.840;2023-04-10T01:33:09;6.57;;;5.88;;
6475;SDS011;3271;51.910;5.840;2023-04-10T01:35:37;6.15;;;5.60;;
6475;SDS011;3271;51.910;5.840;2023-04-10T01:38:04;5.63;;;5.13;;
6475;SDS011;3271;51.910;5.840;2023-04-10T01:40:31;6.22;;;5.63;;
6475;SDS011;3271;51.910;5.840;2023-04-10T01:42:57;6.38;;;5.78;;
6475;SDS011;3271;51.910;5.840;2023-04-10T01:45:26;6.40;;;5.80;;
6475;SDS011;3271;51.910;5.840;2023-04-10T01:47:53;6.47;;;5.88;;
6475;SDS011;3271;51.910;5.840;2023-04-10T01:50:20;6.45;;;5.85;;
6475;SDS011;3271;51.910;5.840;2023-04-10T01:52:48;5.90;;;5.30;;
6475;SDS011;3271;51.910;5.840;2023-04-10T01:55:14;6.45;;;5.85;;
6475;SDS011;3271;51.910;5.840;2023-04-10T01:57:40;6.18;;;5.57;;
6475;SDS011;3271;51.910;5.840;2023-04-10T02:00:07;6.15;;;5.55;;
6475;SDS011;3271;51.910;5.840;2023-04-10T02:02:33;6.75;;;6.13;;
6475;SDS011;3271;51.910;5.840;2023-04-10T02:04:59;6.78;;;6.07;;
6475;SDS011;3271;51.910;5.840;2023-04-10T02:07:34;7.00;;;6.18;;
6475;SDS011;3271;51.910;5.840;2023-04-10T02:10:03;6.30;;;5.70;;
6475;SDS011;3271;51.910;5.840;2023-04-10T02:12:44;6.55;;;5.95;;
6475;SDS011;3271;51.910;5.840;2023-04-10T02:15:11;6.55;;;5.85;;
6475;SDS011;3271;51.910;5.840;2023-04-10T02:17:37;6.32;;;5.72;;
6475;SDS011;3271;51.910;5.840;2023-04-10T02:20:04;6.45;;;5.75;;
6475;SDS011;3271;51.910;5.840;2023-04-10T02:22:31;6.90;;;5.50;;
6475;SDS011;3271;51.910;5.840;2023-04-10T02:24:58;6.80;;;6.05;;
6475;SDS011;3271;51.910;5.840;2023-04-10T02:27:31;6.20;;;5.60;;
6475;SDS011;3271;51.910;5.840;2023-04-10T02:29:58;6.57;;;5.63;;
6475;SDS011;3271;51.910;5.840;2023-04-10T02:32:23;6.78;;;5.70;;
6475;SDS011;3271;51.910;5.840;2023-04-10T02:34:50;6.53;;;5.93;;
6475;SDS011;3271;51.910;5.840;2023-04-10T02:37:16;6.63;;;5.30;;
6475;SDS011;3271;51.910;5.840;2023-04-10T02:39:42;6.18;;;5.65;;
6475;SDS011;3271;51.910;5.840;2023-04-10T02:42:08;6.95;;;6.03;;
6475;SDS011;3271;51.910;5.840;2023-04-10T02:44:34;6.95;;;6.20;;
6475;SDS011;3271;51.910;5.840;2023-04-10T02:47:00;6.18;;;5.57;;
6475;SDS011;3271;51.910;5.840;2023-04-10T02:49:26;6.55;;;5.85;;
6475;SDS011;3271;51.910;5.840;2023-04-10T02:51:52;6.30;;;5.72;;
6475;SDS011;3271;51.910;5.840;2023-04-10T02:54:18;6.28;;;5.68;;
6475;SDS011;3271;51.910;5.840;2023-04-10T02:56:43;6.10;;;5.57;;
6475;SDS011;3271;51.910;5.840;2023-04-10T02:59:10;6.85;;;6.15;;
6475;SDS011;3271;51.910;5.840;2023-04-10T03:01:37;7.05;;;6.35;;
6475;SDS011;3271;51.910;5.840;2023-04-10T03:04:03;6.75;;;6.15;;
6475;SDS011;3271;51.910;5.840;2023-04-10T03:06:29;6.65;;;6.03;;
6475;SDS011;3271;51.910;5.840;2023-04-10T03:08:55;7.22;;;6.53;;
6475;SDS011;3271;51.910;5.840;2023-04-10T03:11:21;7.18;;;6.22;;
6475;SDS011;3271;51.910;5.840;2023-04-10T03:13:47;6.85;;;6.15;;
6475;SDS011;3271;51.910;5.840;2023-04-10T03:16:13;7.22;;;6.53;;
6475;SDS011;3271;51.910;5.840;2023-04-10T03:18:40;7.95;;;6.80;;
6475;SDS011;3271;51.910;5.840;2023-04-10T03:21:06;7.55;;;6.85;;
6475;SDS011;3271;51.910;5.840;2023-04-10T03:23:32;6.80;;;6.20;;
6475;SDS011;3271;51.910;5.840;2023-04-10T03:25:58;9.80;;;6.43;;
6475;SDS011;3271;51.910;5.840;2023-04-10T03:28:24;7.25;;;6.55;;
6475;SDS011;3271;51.910;5.840;2023-04-10T03:30:51;7.38;;;6.68;;
6475;SDS011;3271;51.910;5.840;2023-04-10T03:33:17;8.00;;;7.18;;
6475;SDS011;3271;51.910;5.840;2023-04-10T03:35:44;7.45;;;6.75;;
6475;SDS011;3271;51.910;5.840;2023-04-10T03:38:10;7.63;;;6.85;;
6475;SDS011;3271;51.910;5.840;2023-04-10T03:40:36;7.05;;;6.10;;
6475;SDS011;3271;51.910;5.840;2023-04-10T03:43:02;7.35;;;6.65;;
6475;SDS011;3271;51.910;5.840;2023-04-10T03:45:28;7.47;;;6.70;;
6475;SDS011;3271;51.910;5.840;2023-04-10T03:47:54;7.80;;;7.00;;
6475;SDS011;3271;51.910;5.840;2023-04-10T03:50:20;7.03;;;6.40;;
6475;SDS011;3271;51.910;5.840;2023-04-10T03:52:46;7.47;;;6.78;;
6475;SDS011;3271;51.910;5.840;2023-04-10T03:55:13;10.05;;;6.93;;
6475;SDS011;3271;51.910;5.840;2023-04-10T03:57:43;8.65;;;7.15;;
6475;SDS011;3271;51.910;5.840;2023-04-10T04:00:09;7.35;;;6.65;;
6475;SDS011;3271;51.910;5.840;2023-04-10T04:02:35;7.65;;;6.82;;
6475;SDS011;3271;51.910;5.840;2023-04-10T04:05:01;7.63;;;6.82;;
6475;SDS011;3271;51.910;5.840;2023-04-10T04:07:27;7.40;;;6.70;;
6475;SDS011;3271;51.910;5.840;2023-04-10T04:09:53;7.43;;;6.47;;
6475;SDS011;3271;51.910;5.840;2023-04-10T04:12:19;7.03;;;6.32;;
6475;SDS011;3271;51.910;5.840;2023-04-10T04:14:45;6.82;;;6.13;;
6475;SDS011;3271;51.910;5.840;2023-04-10T04:17:11;6.88;;;6.18;;
6475;SDS011;3271;51.910;5.840;2023-04-10T04:19:37;8.38;;;6.85;;
6475;SDS011;3271;51.910;5.840;2023-04-10T04:22:02;7.05;;;6.43;;
6475;SDS011;3271;51.910;5.840;2023-04-10T04:24:28;8.40;;;6.47;;
6475;SDS011;3271;51.910;5.840;2023-04-10T04:26:54;7.15;;;6.45;;
6475;SDS011;3271;51.910;5.840;2023-04-10T04:29:21;7.45;;;6.72;;
6475;SDS011;3271;51.910;5.840;2023-04-10T04:31:47;7.20;;;6.32;;
6475;SDS011;3271;51.910;5.840;2023-04-10T04:34:13;8.40;;;6.20;;
6475;SDS011;3271;51.910;5.840;2023-04-10T04:36:40;7.43;;;6.72;;
6475;SDS011;3271;51.910;5.840;2023-04-10T04:39:06;7.60;;;6.80;;
6475;SDS011;3271;51.910;5.840;2023-04-10T04:41:32;7.28;;;6.60;;
6475;SDS011;3271;51.910;5.840;2023-04-10T04:43:58;7.45;;;5.82;;
6475;SDS011;3271;51.910;5.840;2023-04-10T04:46:25;7.07;;;6.38;;
6475;SDS011;3271;51.910;5.840;2023-04-10T04:48:51;7.05;;;6.32;;
6475;SDS011;3271;51.910;5.840;2023-04-10T04:51:17;8.13;;;6.75;;
6475;SDS011;3271;51.910;5.840;2023-04-10T04:53:42;7.80;;;7.07;;
6475;SDS011;3271;51.910;5.840;2023-04-10T04:56:08;6.88;;;6.18;;
6475;SDS011;3271;51.910;5.840;2023-04-10T04:58:34;7.38;;;6.68;;
6475;SDS011;3271;51.910;5.840;2023-04-10T05:01:00;9.00;;;7.45;;
6475;SDS011;3271;51.910;5.840;2023-04-10T05:03:26;7.68;;;6.97;;
6475;SDS011;3271;51.910;5.840;2023-04-10T05:05:53;6.95;;;6.25;;
6475;SDS011;3271;51.910;5.840;2023-04-10T05:08:18;7.55;;;6.85;;
6475;SDS011;3271;51.910;5.840;2023-04-10T05:10:44;7.72;;;7.03;;
6475;SDS011;3271;51.910;5.840;2023-04-10T05:13:11;7.10;;;6.40;;
6475;SDS011;3271;51.910;5.840;2023-04-10T05:15:37;8.38;;;7.57;;
6475;SDS011;3271;51.910;5.840;2023-04-10T05:18:03;7.13;;;6.43;;
6475;SDS011;3271;51.910;5.840;2023-04-10T05:20:29;7.85;;;7.05;;
6475;SDS011;3271;51.910;5.840;2023-04-10T05:22:55;7.90;;;6.78;;
6475;SDS011;3271;51.910;5.840;2023-04-10T05:25:22;7.45;;;6.72;;
6475;SDS011;3271;51.910;5.840;2023-04-10T05:27:48;7.38;;;6.68;;
6475;SDS011;3271;51.910;5.840;2023-04-10T05:30:14;7.43;;;6.43;;
6475;SDS011;3271;51.910;5.840;2023-04-10T05:32:40;7.95;;;7.15;;
6475;SDS011;3271;51.910;5.840;2023-04-10T05:35:06;7.60;;;6.80;;
6475;SDS011;3271;51.910;5.840;2023-04-10T05:37:32;6.75;;;6.13;;
6475;SDS011;3271;51.910;5.840;2023-04-10T05:39:58;7.95;;;7.25;;
6475;SDS011;3271;51.910;5.840;2023-04-10T05:42:24;7.32;;;6.63;;
6475;SDS011;3271;51.910;5.840;2023-04-10T05:44:50;7.30;;;6.47;;
6475;SDS011;3271;51.910;5.840;2023-04-10T05:47:16;7.25;;;5.90;;
6475;SDS011;3271;51.910;5.840;2023-04-10T05:49:42;7.60;;;6.90;;
6475;SDS011;3271;51.910;5.840;2023-04-10T05:52:08;6.75;;;6.05;;
6475;SDS011;3271;51.910;5.840;2023-04-10T05:54:34;7.97;;;7.15;;
6475;SDS011;3271;51.910;5.840;2023-04-10T05:57:00;8.13;;;6.15;;
6475;SDS011;3271;51.910;5.840;2023-04-10T05:59:26;8.70;;;6.53;;
6475;SDS011;3271;51.910;5.840;2023-04-10T06:01:52;7.65;;;5.53;;
6475;SDS011;3271;51.910;5.840;2023-04-10T06:04:18;7.10;;;6.25;;
6475;SDS011;3271;51.910;5.840;2023-04-10T06:06:45;7.63;;;6.75;;
6475;SDS011;3271;51.910;5.840;2023-04-10T06:09:11;8.68;;;6.90;;
6475;SDS011;3271;51.910;5.840;2023-04-10T06:11:37;8.93;;;7.07;;
6475;SDS011;3271;51.910;5.840;2023-04-10T06:14:03;7.10;;;6.50;;
6475;SDS011;3271;51.910;5.840;2023-04-10T06:16:29;8.43;;;7.50;;
6475;SDS011;3271;51.910;5.840;2023-04-10T06:18:55;6.90;;;6.20;;
6475;SDS011;3271;51.910;5.840;2023-04-10T06:21:21;7.20;;;6.28;;
6475;SDS011;3271;51.910;5.840;2023-04-10T06:23:47;7.72;;;7.03;;
6475;SDS011;3271;51.910;5.840;2023-04-10T06:26:13;7.38;;;6.63;;
6475;SDS011;3271;51.910;5.840;2023-04-10T06:28:39;7.50;;;6.70;;
6475;SDS011;3271;51.910;5.840;2023-04-10T06:31:06;7.47;;;6.68;;
6475;SDS011;3271;51.910;5.840;2023-04-10T06:33:32;7.50;;;6.63;;
6475;SDS011;3271;51.910;5.840;2023-04-10T06:36:01;7.38;;;6.68;;
6475;SDS011;3271;51.910;5.840;2023-04-10T06:38:27;7.57;;;6.88;;
6475;SDS011;3271;51.910;5.840;2023-04-10T06:40:53;7.13;;;6.35;;
6475;SDS011;3271;51.910;5.840;2023-04-10T06:43:19;7.68;;;6.80;;
6475;SDS011;3271;51.910;5.840;2023-04-10T06:45:45;7.68;;;6.97;;
6475;SDS011;3271;51.910;5.840;2023-04-10T06:48:11;7.47;;;6.70;;
6475;SDS011;3271;51.910;5.840;2023-04-10T06:50:38;7.78;;;6.60;;
6475;SDS011;3271;51.910;5.840;2023-04-10T06:53:04;7.40;;;6.70;;
6475;SDS011;3271;51.910;5.840;2023-04-10T06:55:30;7.45;;;6.75;;
6475;SDS011;3271;51.910;5.840;2023-04-10T06:57:55;7.80;;;7.05;;
6475;SDS011;3271;51.910;5.840;2023-04-10T07:00:21;7.72;;;6.68;;
6475;SDS011;3271;51.910;5.840;2023-04-10T07:02:48;8.25;;;7.20;;
6475;SDS011;3271;51.910;5.840;2023-04-10T07:05:14;7.50;;;6.80;;
6475;SDS011;3271;51.910;5.840;2023-04-10T07:07:42;7.65;;;6.95;;
6475;SDS011;3271;51.910;5.840;2023-04-10T07:10:08;8.15;;;7.40;;
6475;SDS011;3271;51.910;5.840;2023-04-10T07:12:35;7.00;;;6.38;;
6475;SDS011;3271;51.910;5.840;2023-04-10T07:15:00;6.97;;;6.28;;
6475;SDS011;3271;51.910;5.840;2023-04-10T07:17:27;7.82;;;7.03;;
6475;SDS011;3271;51.910;5.840;2023-04-10T07:19:53;7.45;;;6.18;;
6475;SDS011;3271;51.910;5.840;2023-04-10T07:22:18;7.38;;;6.47;;
6475;SDS011;3271;51.910;5.840;2023-04-10T07:24:44;7.78;;;6.68;;
6475;SDS011;3271;51.910;5.840;2023-04-10T07:27:10;7.45;;;6.65;;
6475;SDS011;3271;51.910;5.840;2023-04-10T07:29:36;6.70;;;6.10;;
6475;SDS011;3271;51.910;5.840;2023-04-10T07:32:02;8.65;;;7.38;;
6475;SDS011;3271;51.910;5.840;2023-04-10T07:34:29;7.70;;;6.90;;
6475;SDS011;3271;51.910;5.840;2023-04-10T07:36:55;7.18;;;6.38;;
6475;SDS011;3271;51.910;5.840;2023-04-10T07:39:21;7.32;;;6.63;;
6475;SDS011;3271;51.910;5.840;2023-04-10T07:41:47;7.88;;;6.85;;
6475;SDS011;3271;51.910;5.840;2023-04-10T07:44:13;10.18;;;6.80;;
6475;SDS011;3271;51.910;5.840;2023-04-10T07:46:39;6.82;;;6.18;;
6475;SDS011;3271;51.910;5.840;2023-04-10T07:49:05;7.32;;;6.63;;
6475;SDS011;3271;51.910;5.840;2023-04-10T07:51:31;7.30;;;6.20;;
6475;SDS011;3271;51.910;5.840;2023-04-10T07:53:57;7.65;;;6.95;;
6475;SDS011;3271;51.910;5.840;2023-04-10T07:56:23;6.90;;;6.20;;
6475;SDS011;3271;51.910;5.840;2023-04-10T07:58:50;7.05;;;6.32;;
6475;SDS011;3271;51.910;5.840;2023-04-10T08:01:16;8.52;;;6.32;;
6475;SDS011;3271;51.910;5.840;2023-04-10T08:03:42;7.72;;;6.70;;
6475;SDS011;3271;51.910;5.840;2023-04-10T08:06:09;6.25;;;5.75;;
6475;SDS011;3271;51.910;5.840;2023-04-10T08:08:35;7.50;;;6.15;;
6475;SDS011;3271;51.910;5.840;2023-04-10T08:11:02;6.75;;;6.15;;
6475;SDS011;3271;51.910;5.840;2023-04-10T08:13:28;6.82;;;6.13;;
6475;SDS011;3271;51.910;5.840;2023-04-10T08:15:54;6.45;;;5.75;;
6475;SDS011;3271;51.910;5.840;2023-04-10T08:18:20;9.15;;;6.60;;
6475;SDS011;3271;51.910;5.840;2023-04-10T08:20:46;7.10;;;6.40;;
6475;SDS011;3271;51.910;5.840;2023-04-10T08:23:12;7.18;;;6.47;;
6475;SDS011;3271;51.910;5.840;2023-04-10T08:25:38;6.07;;;5.57;;
6475;SDS011;3271;51.910;5.840;2023-04-10T08:28:04;6.43;;;5.82;;
6475;SDS011;3271;51.910;5.840;2023-04-10T08:30:29;7.57;;;5.90;;
6475;SDS011;3271;51.910;5.840;2023-04-10T08:32:55;6.95;;;6.25;;
6475;SDS011;3271;51.910;5.840;2023-04-10T08:35:21;6.82;;;6.13;;
6475;SDS011;3271;51.910;5.840;2023-04-10T08:37:47;8.25;;;6.03;;
6475;SDS011;3271;51.910;5.840;2023-04-10T08:40:13;6.32;;;5.72;;
6475;SDS011;3271;51.910;5.840;2023-04-10T08:42:39;7.28;;;6.57;;
6475;SDS011;3271;51.910;5.840;2023-04-10T08:45:05;7.47;;;6.28;;
6475;SDS011;3271;51.910;5.840;2023-04-10T08:47:33;6.80;;;6.10;;
6475;SDS011;3271;51.910;5.840;2023-04-10T08:50:05;6.35;;;5.30;;
6475;SDS011;3271;51.910;5.840;2023-04-10T08:52:32;6.45;;;5.85;;
6475;SDS011;3271;51.910;5.840;2023-04-10T08:55:01;6.35;;;5.75;;
6475;SDS011;3271;51.910;5.840;2023-04-10T08:57:30;6.68;;;6.07;;
6475;SDS011;3271;51.910;5.840;2023-04-10T08:59:56;7.38;;;6.28;;
6475;SDS011;3271;51.910;5.840;2023-04-10T09:02:23;6.72;;;6.05;;
6475;SDS011;3271;51.910;5.840;2023-04-10T09:04:49;6.38;;;5.70;;
6475;SDS011;3271;51.910;5.840;2023-04-10T09:07:16;6.63;;;5.90;;
6475;SDS011;3271;51.910;5.840;2023-04-10T09:09:42;6.05;;;5.38;;
6475;SDS011;3271;51.910;5.840;2023-04-10T09:12:08;6.50;;;5.82;;
6475;SDS011;3271;51.910;5.840;2023-04-10T09:14:34;7.00;;;6.32;;
6475;SDS011;3271;51.910;5.840;2023-04-10T09:19:38;6.43;;;5.75;;
6475;SDS011;3271;51.910;5.840;2023-04-10T09:22:04;6.90;;;5.53;;
6475;SDS011;3271;51.910;5.840;2023-04-10T09:24:30;7.03;;;5.70;;
6475;SDS011;3271;51.910;5.840;2023-04-10T09:27:00;6.25;;;5.43;;
6475;SDS011;3271;51.910;5.840;2023-04-10T09:29:26;8.10;;;5.40;;
6475;SDS011;3271;51.910;5.840;2023-04-10T09:32:02;7.53;;;6.28;;
6475;SDS011;3271;51.910;5.840;2023-04-10T09:34:28;6.38;;;5.78;;
6475;SDS011;3271;51.910;5.840;2023-04-10T09:36:56;11.38;;;10.18;;
6475;SDS011;3271;51.910;5.840;2023-04-10T09:39:38;16.95;;;14.90;;
6475;SDS011;3271;51.910;5.840;2023-04-10T09:42:06;8.80;;;7.90;;
6475;SDS011;3271;51.910;5.840;2023-04-10T09:44:33;6.00;;;5.40;;
6475;SDS011;3271;51.910;5.840;2023-04-10T09:47:19;6.78;;;6.07;;
6475;SDS011;3271;51.910;5.840;2023-04-10T09:49:52;6.90;;;5.93;;
6475;SDS011;3271;51.910;5.840;2023-04-10T09:52:23;6.47;;;5.90;;
6475;SDS011;3271;51.910;5.840;2023-04-10T09:54:52;6.25;;;5.20;;
6475;SDS011;3271;51.910;5.840;2023-04-10T09:57:19;6.40;;;5.70;;
6475;SDS011;3271;51.910;5.840;2023-04-10T09:59:47;6.05;;;5.45;;
6475;SDS011;3271;51.910;5.840;2023-04-10T10:02:13;6.20;;;5.60;;
6475;SDS011;3271;51.910;5.840;2023-04-10T10:04:40;6.47;;;5.25;;
6475;SDS011;3271;51.910;5.840;2023-04-10T10:07:07;6.65;;;5.10;;
6475;SDS011;3271;51.910;5.840;2023-04-10T10:09:34;6.85;;;5.63;;
6475;SDS011;3271;51.910;5.840;2023-04-10T10:12:00;7.00;;;5.43;;
6475;SDS011;3271;51.910;5.840;2023-04-10T10:14:27;5.47;;;4.90;;
6475;SDS011;3271;51.910;5.840;2023-04-10T10:16:53;5.88;;;5.38;;
6475;SDS011;3271;51.910;5.840;2023-04-10T10:19:26;5.80;;;5.28;;
6475;SDS011;3271;51.910;5.840;2023-04-10T10:21:54;5.72;;;5.22;;
6475;SDS011;3271;51.910;5.840;2023-04-10T10:24:20;6.43;;;5.22;;
6475;SDS011;3271;51.910;5.840;2023-04-10T10:26:48;5.05;;;4.57;;
6475;SDS011;3271;51.910;5.840;2023-04-10T10:29:15;5.43;;;4.93;;
6475;SDS011;3271;51.910;5.840;2023-04-10T10:31:42;5.78;;;5.15;;
6475;SDS011;3271;51.910;5.840;2023-04-10T10:34:09;4.90;;;4.50;;
6475;SDS011;3271;51.910;5.840;2023-04-10T10:36:35;5.15;;;4.40;;
6475;SDS011;3271;51.910;5.840;2023-04-10T10:39:10;5.30;;;4.75;;
6475;SDS011;3271;51.910;5.840;2023-04-10T10:41:42;7.10;;;4.80;;
6475;SDS011;3271;51.910;5.840;2023-04-10T10:44:10;5.07;;;4.60;;
6475;SDS011;3271;51.910;5.840;2023-04-10T10:46:40;5.45;;;4.72;;
6475;SDS011;3271;51.910;5.840;2023-04-10T10:49:07;4.72;;;4.32;;
6475;SDS011;3271;51.910;5.840;2023-04-10T10:51:46;5.80;;;5.20;;
6475;SDS011;3271;51.910;5.840;2023-04-10T10:56:54;7.30;;;4.85;;
6475;SDS011;3271;51.910;5.840;2023-04-10T11:02:14;5.05;;;4.60;;
6475;SDS011;3271;51.910;5.840;2023-04-10T11:04:41;5.55;;;5.05;;
6475;SDS011;3271;51.910;5.840;2023-04-10T11:07:08;6.50;;;5.85;;
6475;SDS011;3271;51.910;5.840;2023-04-10T11:09:50;5.78;;;5.28;;
6475;SDS011;3271;51.910;5.840;2023-04-10T11:12:18;5.43;;;4.93;;
6475;SDS011;3271;51.910;5.840;2023-04-10T11:14:55;5.43;;;4.93;;
6475;SDS011;3271;51.910;5.840;2023-04-10T11:20:05;5.73;;;5.23;;
6475;SDS011;3271;51.910;5.840;2023-04-10T11:22:32;4.40;;;4.07;;
6475;SDS011;3271;51.910;5.840;2023-04-10T11:25:17;5.40;;;5.00;;
6475;SDS011;3271;51.910;5.840;2023-04-10T11:27:44;5.13;;;4.63;;
6475;SDS011;3271;51.910;5.840;2023-04-10T11:32:51;5.68;;;5.05;;
6475;SDS011;3271;51.910;5.840;2023-04-10T11:35:18;7.07;;;5.13;;
6475;SDS011;3271;51.910;5.840;2023-04-10T11:37:44;5.85;;;5.35;;
6475;SDS011;3271;51.910;5.840;2023-04-10T11:40:10;5.43;;;4.93;;
6475;SDS011;3271;51.910;5.840;2023-04-10T11:42:36;6.97;;;5.88;;
6475;SDS011;3271;51.910;5.840;2023-04-10T11:47:51;5.57;;;4.30;;
6475;SDS011;3271;51.910;5.840;2023-04-10T11:50:18;5.60;;;4.82;;
6475;SDS011;3271;51.910;5.840;2023-04-10T11:52:45;4.88;;;4.38;;
6475;SDS011;3271;51.910;5.840;2023-04-10T11:55:11;6.00;;;5.38;;
6475;SDS011;3271;51.910;5.840;2023-04-10T11:57:36;5.60;;;5.10;;
6475;SDS011;3271;51.910;5.840;2023-04-10T12:00:02;5.07;;;4.68;;
6475;SDS011;3271;51.910;5.840;2023-04-10T12:02:29;5.10;;;4.60;;
6475;SDS011;3271;51.910;5.840;2023-04-10T12:04:57;5.43;;;4.88;;
6475;SDS011;3271;51.910;5.840;2023-04-10T12:07:23;5.15;;;4.75;;
6475;SDS011;3271;51.910;5.840;2023-04-10T12:09:56;4.97;;;4.43;;
6475;SDS011;3271;51.910;5.840;2023-04-10T12:12:34;3.85;;;3.55;;
6475;SDS011;3271;51.910;5.840;2023-04-10T12:15:01;5.07;;;4.57;;
6475;SDS011;3271;51.910;5.840;2023-04-10T12:17:27;4.60;;;4.20;;
6475;SDS011;3271;51.910;5.840;2023-04-10T12:19:53;3.80;;;3.50;;
6475;SDS011;3271;51.910;5.840;2023-04-10T12:22:19;5.32;;;3.60;;
6475;SDS011;3271;51.910;5.840;2023-04-10T12:24:49;3.88;;;3.58;;
6475;SDS011;3271;51.910;5.840;2023-04-10T12:27:22;4.20;;;3.78;;
6475;SDS011;3271;51.910;5.840;2023-04-10T12:29:50;4.20;;;3.47;;
6475;SDS011;3271;51.910;5.840;2023-04-10T12:32:16;4.75;;;3.38;;
6475;SDS011;3271;51.910;5.840;2023-04-10T12:34:51;3.70;;;3.40;;
6475;SDS011;3271;51.910;5.840;2023-04-10T12:37:18;3.63;;;3.33;;
6475;SDS011;3271;51.910;5.840;2023-04-10T12:39:44;3.53;;;3.22;;
6475;SDS011;3271;51.910;5.840;2023-04-10T12:42:11;3.88;;;3.58;;
6475;SDS011;3271;51.910;5.840;2023-04-10T12:44:53;5.07;;;3.58;;
6475;SDS011;3271;51.910;5.840;2023-04-10T12:47:19;3.50;;;3.20;;
6475;SDS011;3271;51.910;5.840;2023-04-10T12:52:30;3.55;;;3.15;;
6475;SDS011;3271;51.910;5.840;2023-04-10T12:57:37;3.88;;;3.58;;
6475;SDS011;3271;51.910;5.840;2023-04-10T13:00:07;5.30;;;3.33;;
6475;SDS011;3271;51.910;5.840;2023-04-10T13:02:33;3.80;;;3.47;;
6475;SDS011;3271;51.910;5.840;2023-04-10T13:04:59;4.25;;;3.53;;
6475;SDS011;3271;51.910;5.840;2023-04-10T13:07:25;4.18;;;3.40;;
6475;SDS011;3271;51.910;5.840;2023-04-10T13:09:51;4.10;;;3.65;;
6475;SDS011;3271;51.910;5.840;2023-04-10T13:12:17;3.47;;;3.17;;
6475;SDS011;3271;51.910;5.840;2023-04-10T13:14:43;3.50;;;3.20;;
6475;SDS011;3271;51.910;5.840;2023-04-10T13:17:10;4.10;;;3.30;;
6475;SDS011;3271;51.910;5.840;2023-04-10T13:19:36;3.50;;;3.20;;
6475;SDS011;3271;51.910;5.840;2023-04-10T13:22:02;3.53;;;3.22;;
6475;SDS011;3271;51.910;5.840;2023-04-10T13:24:28;3.92;;;3.53;;
6475;SDS011;3271;51.910;5.840;2023-04-10T13:26:55;3.70;;;3.40;;
6475;SDS011;3271;51.910;5.840;2023-04-10T13:29:22;3.83;;;3.42;;
6475;SDS011;3271;51.910;5.840;2023-04-10T13:31:48;4.07;;;3.78;;
6475;SDS011;3271;51.910;5.840;2023-04-10T13:34:14;4.35;;;3.42;;
6475;SDS011;3271;51.910;5.840;2023-04-10T13:36:40;3.72;;;3.38;;
6475;SDS011;3271;51.910;5.840;2023-04-10T13:39:06;4.43;;;3.58;;
6475;SDS011;3271;51.910;5.840;2023-04-10T13:41:32;5.43;;;3.53;;
6475;SDS011;3271;51.910;5.840;2023-04-10T13:43:58;3.60;;;3.30;;
6475;SDS011;3271;51.910;5.840;2023-04-10T13:46:24;4.00;;;3.28;;
6475;SDS011;3271;51.910;5.840;2023-04-10T13:48:50;3.70;;;3.40;;
6475;SDS011;3271;51.910;5.840;2023-04-10T13:51:16;4.15;;;3.22;;
6475;SDS011;3271;51.910;5.840;2023-04-10T13:53:42;3.58;;;3.05;;
6475;SDS011;3271;51.910;5.840;2023-04-10T13:56:08;3.72;;;3.35;;
6475;SDS011;3271;51.910;5.840;2023-04-10T13:58:34;3.60;;;3.30;;
6475;SDS011;3271;51.910;5.840;2023-04-10T14:01:00;4.93;;;3.35;;
6475;SDS011;3271;51.910;5.840;2023-04-10T14:03:26;3.78;;;3.47;;
6475;SDS011;3271;51.910;5.840;2023-04-10T14:05:52;3.83;;;3.53;;
6475;SDS011;3271;51.910;5.840;2023-04-10T14:08:19;3.45;;;3.15;;
6475;SDS011;3271;51.910;5.840;2023-04-10T14:10:45;3.97;;;3.67;;
6475;SDS011;3271;51.910;5.840;2023-04-10T14:13:15;3.63;;;3.35;;
6475;SDS011;3271;51.910;5.840;2023-04-10T14:15:41;3.60;;;3.30;;
6475;SDS011;3271;51.910;5.840;2023-04-10T14:18:08;3.25;;;2.95;;
6475;SDS011;3271;51.910;5.840;2023-04-10T14:20:34;4.97;;;3.38;;
6475;SDS011;3271;51.910;5.840;2023-04-10T14:23:00;3.80;;;3.50;;
6475;SDS011;3271;51.910;5.840;2023-04-10T14:25:26;3.65;;;3.33;;
6475;SDS011;3271;51.910;5.840;2023-04-10T14:27:52;4.20;;;3.67;;
6475;SDS011;3271;51.910;5.840;2023-04-10T14:30:18;3.90;;;3.20;;
6475;SDS011;3271;51.910;5.840;2023-04-10T14:32:43;4.43;;;3.17;;
6475;SDS011;3271;51.910;5.840;2023-04-10T14:35:10;3.65;;;3.35;;
6475;SDS011;3271;51.910;5.840;2023-04-10T14:37:36;3.10;;;2.80;;
6475;SDS011;3271;51.910;5.840;2023-04-10T14:40:02;5.40;;;2.97;;
6475;SDS011;3271;51.910;5.840;2023-04-10T14:42:29;3.88;;;3.58;;
6475;SDS011;3271;51.910;5.840;2023-04-10T14:44:54;3.33;;;3.03;;
6475;SDS011;3271;51.910;5.840;2023-04-10T14:47:22;3.58;;;3.08;;
6475;SDS011;3271;51.910;5.840;2023-04-10T14:49:48;3.25;;;2.95;;
6475;SDS011;3271;51.910;5.840;2023-04-10T14:52:14;3.45;;;3.15;;
6475;SDS011;3271;51.910;5.840;2023-04-10T14:54:40;3.35;;;3.00;;
6475;SDS011;3271;51.910;5.840;2023-04-10T14:57:06;4.70;;;3.00;;
6475;SDS011;3271;51.910;5.840;2023-04-10T14:59:33;3.42;;;3.13;;
6475;SDS011;3271;51.910;5.840;2023-04-10T15:01:59;3.38;;;3.08;;
6475;SDS011;3271;51.910;5.840;2023-04-10T15:04:25;2.92;;;2.70;;
6475;SDS011;3271;51.910;5.840;2023-04-10T15:06:52;3.45;;;3.15;;
6475;SDS011;3271;51.910;5.840;2023-04-10T15:09:18;2.85;;;2.65;;
6475;SDS011;3271;51.910;5.840;2023-04-10T15:11:44;2.92;;;2.70;;
6475;SDS011;3271;51.910;5.840;2023-04-10T15:14:11;5.00;;;3.22;;
6475;SDS011;3271;51.910;5.840;2023-04-10T15:16:37;2.95;;;2.72;;
6475;SDS011;3271;51.910;5.840;2023-04-10T15:19:03;2.88;;;2.60;;
6475;SDS011;3271;51.910;5.840;2023-04-10T15:21:28;3.10;;;2.78;;
6475;SDS011;3271;51.910;5.840;2023-04-10T15:23:55;2.92;;;2.70;;
6475;SDS011;3271;51.910;5.840;2023-04-10T15:26:21;3.42;;;3.13;;
6475;SDS011;3271;51.910;5.840;2023-04-10T15:28:47;3.15;;;2.85;;
6475;SDS011;3271;51.910;5.840;2023-04-10T15:31:13;2.35;;;2.25;;
6475;SDS011;3271;51.910;5.840;2023-04-10T15:33:39;2.50;;;2.30;;
6475;SDS011;3271;51.910;5.840;2023-04-10T15:36:06;3.15;;;2.70;;
6475;SDS011;3271;51.910;5.840;2023-04-10T15:38:33;4.13;;;2.70;;
6475;SDS011;3271;51.910;5.840;2023-04-10T15:40:59;2.97;;;2.78;;
6475;SDS011;3271;51.910;5.840;2023-04-10T15:43:25;3.75;;;2.92;;